createdAt,value
2023-05-02T00:02:17.959Z,13.70
2023-05-02T00:04:44.897Z,13.68
2023-05-02T00:07:11.958Z,13.60
2023-05-02T00:09:38.849Z,13.69
2023-05-02T00:12:05.825Z,13.61
2023-05-02T00:14:33.005Z,13.56
2023-05-02T00:16:59.911Z,13.54
2023-05-02T00:19:26.922Z,13.28
2023-05-02T00:21:53.729Z,13.19
2023-05-02T00:24:20.572Z,13.37
2023-05-02T00:26:47.515Z,13.31
2023-05-02T00:29:14.296Z,13.31
2023-05-02T00:31:42.137Z,13.26
2023-05-02T00:34:09.082Z,13.21
2023-05-02T00:36:35.979Z,13.27
2023-05-02T00:39:02.791Z,13.29
2023-05-02T00:41:29.675Z,13.26
2023-05-02T00:43:56.838Z,13.17
2023-05-02T00:46:23.880Z,13.16
2023-05-02T00:48:51.186Z,13.11
2023-05-02T00:51:18.280Z,13.11
2023-05-02T00:53:45.436Z,13.04
2023-05-02T00:56:12.227Z,13.04
2023-05-02T00:58:41.111Z,12.96
2023-05-02T01:01:27.027Z,13.01
2023-05-02T01:04:27.882Z,13.02
2023-05-02T01:07:28.169Z,12.90
2023-05-02T01:10:37.917Z,12.94
2023-05-02T01:13:10.393Z,12.90
2023-05-02T01:15:41.261Z,12.95
2023-05-02T01:18:12.178Z,13.00
2023-05-02T01:20:43.710Z,12.97
2023-05-02T01:24:07.096Z,12.88
2023-05-02T01:26:59.048Z,12.90
2023-05-02T01:29:29.673Z,12.81
2023-05-02T01:31:58.628Z,12.81
2023-05-02T01:34:27.816Z,12.82
2023-05-02T01:36:56.655Z,12.86
2023-05-02T01:39:26.175Z,12.94
2023-05-02T01:41:58.441Z,12.93
2023-05-02T01:44:27.557Z,12.83
2023-05-02T01:46:56.423Z,12.87
2023-05-02T01:49:25.437Z,12.84
2023-05-02T01:51:52.947Z,12.61
2023-05-02T01:54:23.563Z,12.75
2023-05-02T01:56:52.376Z,12.82
2023-05-02T01:59:23.183Z,12.84
2023-05-02T02:01:51.961Z,12.76
2023-05-02T02:04:21.900Z,12.70
2023-05-02T02:07:00.893Z,12.62
2023-05-02T02:09:27.774Z,12.69
2023-05-02T02:12:06.397Z,12.67
2023-05-02T02:14:59.737Z,12.59
2023-05-02T02:17:37.852Z,12.54
2023-05-02T02:20:09.882Z,12.52
2023-05-02T02:22:39.846Z,12.41
2023-05-02T02:25:12.322Z,12.40
2023-05-02T02:27:41.261Z,12.33
2023-05-02T02:30:12.029Z,12.31
2023-05-02T02:32:38.955Z,12.25
2023-05-02T02:35:07.178Z,12.28
2023-05-02T02:37:42.195Z,12.29
2023-05-02T02:40:21.213Z,12.23
2023-05-02T02:43:15.454Z,12.21
2023-05-02T02:46:15.336Z,12.22
2023-05-02T02:49:01.286Z,12.15
2023-05-02T02:51:38.987Z,12.22
2023-05-02T02:54:26.841Z,12.22
2023-05-02T02:57:07.896Z,12.14
2023-05-02T02:59:42.492Z,12.22
2023-05-02T03:02:13.257Z,12.26
2023-05-02T03:04:43.605Z,12.26
2023-05-02T03:07:10.745Z,12.23
2023-05-02T03:09:45.638Z,12.21
2023-05-02T03:12:13.208Z,12.18
2023-05-02T03:14:41.019Z,12.25
2023-05-02T03:17:10.743Z,12.27
2023-05-02T03:19:37.571Z,12.25
2023-05-02T03:22:05.835Z,12.22
2023-05-02T03:24:32.715Z,12.19
2023-05-02T03:26:59.995Z,12.13
2023-05-02T03:29:27.068Z,12.20
2023-05-02T03:31:53.884Z,12.15
2023-05-02T03:34:22.152Z,12.14
2023-05-02T03:36:49.287Z,12.16
2023-05-02T03:39:16.262Z,12.13
2023-05-02T03:41:43.914Z,12.12
2023-05-02T03:44:11.037Z,12.10
2023-05-02T03:46:38.199Z,12.03
2023-05-02T03:49:05.294Z,12.02
2023-05-02T03:51:33.897Z,11.93
2023-05-02T03:54:02.742Z,11.94
2023-05-02T03:56:29.740Z,11.85
2023-05-02T03:58:56.692Z,11.83
2023-05-02T04:01:23.658Z,11.79
2023-05-02T04:03:52.379Z,11.78
2023-05-02T04:06:19.334Z,11.78
2023-05-02T04:08:46.319Z,11.74
2023-05-02T04:11:13.126Z,11.65
2023-05-02T04:13:40.045Z,11.63
2023-05-02T04:16:07.105Z,11.66
2023-05-02T04:18:34.007Z,11.70
2023-05-02T04:21:00.836Z,11.69
2023-05-02T04:23:27.752Z,11.71
2023-05-02T04:25:56.221Z,11.71
2023-05-02T04:28:23.332Z,11.73
2023-05-02T04:30:50.606Z,11.78
2023-05-02T04:33:18.578Z,11.83
2023-05-02T04:35:46.082Z,11.89
2023-05-02T04:38:13.098Z,12.00
2023-05-02T04:40:40.175Z,12.01
2023-05-02T04:43:07.513Z,12.10
2023-05-02T04:45:37.238Z,12.22
2023-05-02T04:48:05.110Z,12.28
2023-05-02T04:50:32.342Z,12.35
2023-05-02T04:52:59.539Z,12.41
2023-05-02T04:55:26.455Z,12.47
2023-05-02T04:57:53.425Z,12.58
2023-05-02T05:00:20.731Z,12.67
2023-05-02T05:02:47.728Z,12.73
2023-05-02T05:05:15.918Z,12.70
2023-05-02T05:07:43.432Z,12.71
2023-05-02T05:10:11.457Z,12.84
2023-05-02T05:12:38.320Z,12.95
2023-05-02T05:15:05.749Z,13.11
2023-05-02T05:17:32.756Z,13.02
2023-05-02T05:19:59.864Z,13.10
2023-05-02T05:22:27.055Z,12.96
2023-05-02T05:24:54.912Z,13.06
2023-05-02T05:27:22.061Z,13.23
2023-05-02T05:29:48.908Z,13.51
2023-05-02T05:32:15.786Z,13.58
2023-05-02T05:34:42.796Z,13.32
2023-05-02T05:37:09.704Z,13.68
2023-05-02T05:39:36.540Z,13.76
2023-05-02T05:42:03.692Z,13.94
2023-05-02T05:44:31.597Z,13.81
2023-05-02T05:46:58.526Z,14.09
2023-05-02T05:49:25.405Z,14.16
2023-05-02T05:51:52.324Z,14.44
2023-05-02T05:54:19.171Z,14.69
2023-05-02T05:56:46.263Z,14.67
2023-05-02T05:59:13.550Z,14.83
2023-05-02T06:01:41.089Z,14.89
2023-05-02T06:04:08.032Z,15.19
2023-05-02T06:06:35.314Z,15.11
2023-05-02T06:09:02.561Z,14.96
2023-05-02T06:11:29.669Z,15.01
2023-05-02T06:13:56.452Z,14.97
2023-05-02T06:16:23.422Z,15.36
2023-05-02T06:18:52.807Z,15.58
2023-05-02T06:21:19.733Z,15.60
2023-05-02T06:23:46.806Z,15.67
2023-05-02T06:26:13.740Z,15.58
2023-05-02T06:28:40.583Z,15.58
2023-05-02T06:31:07.546Z,15.85
2023-05-02T06:33:35.391Z,16.11
2023-05-02T06:36:02.956Z,15.54
2023-05-02T06:38:30.014Z,15.67
2023-05-02T06:40:56.848Z,15.54
2023-05-02T06:43:23.795Z,15.80
2023-05-02T06:45:54.589Z,16.16
2023-05-02T06:48:21.876Z,16.52
2023-05-02T06:50:49.564Z,16.68
2023-05-02T06:53:16.433Z,16.72
2023-05-02T06:55:44.968Z,16.87
2023-05-02T06:58:11.934Z,17.04
2023-05-02T07:00:38.783Z,17.10
2023-05-02T07:03:05.696Z,15.96
2023-05-02T07:05:32.568Z,16.08
2023-05-02T07:07:59.637Z,16.63
2023-05-02T07:10:26.563Z,17.09
2023-05-02T07:12:53.649Z,16.79
2023-05-02T07:15:20.522Z,16.63
2023-05-02T07:17:47.822Z,16.63
2023-05-02T07:20:15.637Z,17.08
2023-05-02T07:22:43.115Z,17.46
2023-05-02T07:25:10.856Z,17.71
2023-05-02T07:27:37.784Z,17.75
2023-05-02T07:30:06.548Z,17.55
2023-05-02T07:32:33.458Z,17.75
2023-05-02T07:35:00.437Z,17.96
2023-05-02T07:37:27.395Z,17.69
2023-05-02T07:39:54.266Z,18.05
2023-05-02T07:42:21.058Z,17.13
2023-05-02T07:44:47.929Z,17.81
2023-05-02T07:47:14.753Z,18.25
2023-05-02T07:49:41.648Z,18.13
2023-05-02T07:52:08.510Z,18.36
2023-05-02T07:54:35.768Z,18.32
2023-05-02T07:57:03.540Z,18.21
2023-05-02T07:59:31.969Z,18.47
2023-05-02T08:01:58.936Z,18.39
2023-05-02T08:04:26.283Z,18.47
2023-05-02T08:06:53.421Z,18.74
2023-05-02T08:09:20.476Z,19.04
2023-05-02T08:11:47.589Z,19.30
2023-05-02T08:14:16.225Z,19.45
2023-05-02T08:16:46.076Z,19.61
2023-05-02T08:19:13.497Z,19.35
2023-05-02T08:21:40.466Z,19.09
2023-05-02T08:24:07.308Z,19.23
2023-05-02T08:26:34.170Z,19.29
2023-05-02T08:29:01.197Z,19.15
2023-05-02T08:31:28.088Z,19.43
2023-05-02T08:33:54.913Z,19.78
2023-05-02T08:36:21.970Z,19.56
2023-05-02T08:38:49.543Z,19.37
2023-05-02T08:41:18.931Z,19.55
2023-05-02T08:43:47.127Z,20.06
2023-05-02T08:46:17.284Z,19.87
2023-05-02T08:48:48.050Z,19.63
2023-05-02T08:51:17.347Z,19.28
2023-05-02T08:53:45.039Z,18.64
2023-05-02T08:56:13.063Z,18.96
2023-05-02T08:58:41.237Z,19.52
2023-05-02T09:01:17.256Z,20.02
2023-05-02T09:03:46.609Z,19.20
2023-05-02T09:06:22.112Z,18.48
2023-05-02T09:08:52.306Z,18.08
2023-05-02T09:11:20.117Z,18.67
2023-05-02T09:13:52.208Z,18.87
2023-05-02T09:16:25.922Z,19.23
2023-05-02T09:18:55.927Z,18.96
2023-05-02T09:21:39.945Z,19.05
2023-05-02T09:24:21.813Z,18.85
2023-05-02T09:27:02.885Z,18.89
2023-05-02T09:29:35.914Z,19.02
2023-05-02T09:32:05.803Z,18.89
2023-05-02T09:34:34.041Z,19.08
2023-05-02T09:37:01.536Z,19.30
2023-05-02T09:39:29.559Z,19.34
2023-05-02T09:41:57.983Z,19.38
2023-05-02T09:44:27.812Z,18.63
2023-05-02T09:46:57.419Z,18.92
2023-05-02T09:49:45.505Z,19.12
2023-05-02T09:52:18.330Z,19.07
2023-05-02T09:54:52.708Z,19.28
2023-05-02T09:57:19.928Z,18.57
2023-05-02T09:59:58.228Z,19.09
2023-05-02T10:02:25.820Z,19.10
2023-05-02T10:04:57.024Z,19.12
2023-05-02T10:07:25.169Z,19.60
2023-05-02T10:09:55.379Z,19.61
2023-05-02T10:12:25.970Z,19.50
2023-05-02T10:15:01.230Z,18.93
2023-05-02T10:17:32.061Z,19.40
2023-05-02T10:20:06.485Z,19.15
2023-05-02T10:22:37.152Z,18.66
2023-05-02T10:25:05.033Z,19.01
2023-05-02T10:27:32.873Z,19.01
2023-05-02T10:30:00.992Z,18.97
2023-05-02T10:32:34.698Z,19.21
2023-05-02T10:35:06.883Z,19.41
2023-05-02T10:37:36.704Z,19.76
2023-05-02T10:40:05.894Z,19.58
2023-05-02T10:42:39.367Z,19.96
2023-05-02T10:45:36.983Z,19.60
2023-05-02T10:48:27.433Z,19.68
2023-05-02T10:51:01.829Z,19.73
2023-05-02T10:53:37.040Z,19.88
2023-05-02T10:56:21.147Z,20.21
2023-05-02T10:58:50.327Z,20.21
2023-05-02T11:01:29.418Z,20.28
2023-05-02T11:04:01.683Z,19.88
2023-05-02T11:06:30.945Z,19.74
2023-05-02T11:09:16.124Z,19.82
2023-05-02T11:11:45.023Z,20.14
2023-05-02T11:14:38.239Z,20.61
2023-05-02T11:17:05.038Z,20.95
2023-05-02T11:19:37.841Z,20.31
2023-05-02T11:22:20.550Z,20.63
2023-05-02T11:24:49.133Z,20.43
2023-05-02T11:27:39.141Z,21.23
2023-05-02T11:30:10.690Z,21.75
2023-05-02T11:32:47.640Z,21.88
2023-05-02T11:35:24.841Z,22.15
2023-05-02T11:38:03.278Z,21.88
2023-05-02T11:40:31.676Z,21.94
2023-05-02T11:43:00.522Z,23.05
2023-05-02T11:45:37.174Z,23.23
2023-05-02T11:48:08.570Z,23.21
2023-05-02T11:50:49.620Z,23.56
2023-05-02T11:53:23.113Z,23.40
2023-05-02T11:55:56.016Z,23.93
2023-05-02T11:58:25.678Z,24.44
2023-05-02T12:00:53.898Z,23.74
2023-05-02T12:03:31.686Z,23.60
2023-05-02T12:06:12.898Z,23.05
2023-05-02T12:08:43.842Z,22.62
2023-05-02T12:11:15.544Z,22.69
2023-05-02T12:13:50.632Z,22.29
2023-05-02T12:16:18.720Z,22.14
2023-05-02T12:18:47.248Z,21.80
2023-05-02T12:21:14.371Z,21.51
2023-05-02T12:23:42.455Z,21.83
2023-05-02T12:26:25.089Z,20.62
2023-05-02T12:28:54.671Z,20.72
2023-05-02T12:31:22.517Z,20.21
2023-05-02T12:33:51.755Z,20.10
2023-05-02T12:36:19.785Z,19.63
2023-05-02T12:38:57.052Z,19.35
2023-05-02T12:41:39.406Z,18.87
2023-05-02T12:44:10.036Z,18.48
2023-05-02T12:46:37.010Z,18.03
2023-05-02T12:49:09.261Z,17.87
2023-05-02T12:51:36.807Z,17.86
2023-05-02T12:54:04.774Z,17.73
2023-05-02T12:56:40.018Z,17.37
2023-05-02T12:59:07.886Z,17.27
2023-05-02T13:01:35.476Z,17.17
2023-05-02T13:04:02.730Z,17.07
2023-05-02T13:06:29.823Z,16.93
2023-05-02T13:08:57.043Z,16.68
2023-05-02T13:11:24.193Z,16.35
2023-05-02T13:13:51.193Z,16.32
2023-05-02T13:16:18.454Z,16.26
2023-05-02T13:18:47.202Z,15.82
2023-05-02T13:21:14.733Z,15.75
2023-05-02T13:23:41.574Z,15.61
2023-05-02T13:26:08.965Z,15.60
2023-05-02T13:28:37.418Z,15.63
2023-05-02T13:31:04.554Z,15.61
2023-05-02T13:33:31.450Z,15.76
2023-05-02T13:35:58.314Z,16.01
2023-05-02T13:38:25.610Z,15.92
2023-05-02T13:40:54.163Z,15.85
2023-05-02T13:43:21.123Z,16.04
2023-05-02T13:45:48.932Z,16.15
2023-05-02T13:48:16.247Z,16.41
2023-05-02T13:50:43.326Z,16.54
2023-05-02T13:53:11.251Z,16.60
2023-05-02T13:55:38.209Z,16.60
2023-05-02T13:58:05.801Z,16.64
2023-05-02T14:00:32.917Z,16.84
2023-05-02T14:02:59.824Z,16.97
2023-05-02T14:05:26.788Z,16.94
2023-05-02T14:07:53.616Z,17.04
2023-05-02T14:10:20.456Z,16.80
2023-05-02T14:12:47.761Z,16.87
2023-05-02T14:15:14.771Z,17.00
2023-05-02T14:17:41.721Z,17.18
2023-05-02T14:20:10.491Z,17.28
2023-05-02T14:22:37.522Z,17.35
2023-05-02T14:25:05.838Z,17.37
2023-05-02T14:27:32.750Z,17.69
2023-05-02T14:29:59.575Z,17.68
2023-05-02T14:32:26.815Z,17.84
2023-05-02T14:34:53.713Z,18.39
2023-05-02T14:37:20.519Z,18.57
2023-05-02T14:39:51.138Z,18.52
2023-05-02T14:42:19.014Z,18.39
2023-05-02T14:44:46.200Z,18.29
2023-05-02T14:47:13.213Z,19.03
2023-05-02T14:49:40.230Z,19.87
2023-05-02T14:52:07.287Z,19.70
2023-05-02T14:54:34.166Z,21.02
2023-05-02T14:57:02.172Z,21.80
2023-05-02T14:59:29.916Z,22.43
2023-05-02T15:01:57.336Z,24.08
2023-05-02T15:04:26.101Z,23.72
2023-05-02T15:06:54.457Z,23.24
2023-05-02T15:09:21.581Z,21.65
2023-05-02T15:11:48.507Z,21.56
2023-05-02T15:14:15.331Z,20.74
2023-05-02T15:16:42.238Z,20.34
2023-05-02T15:19:09.053Z,19.58
2023-05-02T15:21:36.185Z,19.72
2023-05-02T15:24:03.869Z,19.60
2023-05-02T15:26:30.979Z,19.21
2023-05-02T15:28:58.128Z,18.82
2023-05-02T15:31:25.201Z,18.71
2023-05-02T15:33:52.140Z,18.76
2023-05-02T15:36:19.006Z,18.60
2023-05-02T15:38:45.884Z,18.60
2023-05-02T15:41:12.757Z,18.52
2023-05-02T15:43:39.666Z,18.17
2023-05-02T15:46:06.595Z,18.21
2023-05-02T15:48:34.687Z,17.81
2023-05-02T15:51:03.058Z,17.48
2023-05-02T15:53:30.080Z,16.51
2023-05-02T15:55:57.121Z,16.87
2023-05-02T15:58:23.913Z,16.81
2023-05-02T16:00:52.352Z,16.50
2023-05-02T16:03:19.429Z,16.57
2023-05-02T16:05:46.551Z,16.48
2023-05-02T16:08:13.593Z,16.29
2023-05-02T16:10:42.746Z,15.94
2023-05-02T16:13:09.941Z,15.90
2023-05-02T16:15:36.838Z,15.88
2023-05-02T16:18:03.977Z,15.58
2023-05-02T16:20:33.917Z,15.35
2023-05-02T16:23:00.813Z,15.20
2023-05-02T16:25:27.870Z,15.21
2023-05-02T16:27:54.808Z,15.20
2023-05-02T16:30:21.908Z,15.11
2023-05-02T16:32:48.924Z,15.20
2023-05-02T16:35:15.935Z,15.33
2023-05-02T16:37:42.944Z,15.45
2023-05-02T16:40:11.089Z,15.44
2023-05-02T16:42:39.218Z,15.49
2023-05-02T16:45:07.471Z,15.56
2023-05-02T16:47:35.688Z,15.59
2023-05-02T16:50:03.423Z,15.67
2023-05-02T16:52:30.647Z,15.60
2023-05-02T16:54:57.522Z,15.56
2023-05-02T16:57:24.434Z,15.64
2023-05-02T16:59:52.526Z,15.74
2023-05-02T17:02:21.933Z,15.78
2023-05-02T17:04:50.060Z,15.81
2023-05-02T17:07:17.529Z,15.81
2023-05-02T17:09:44.744Z,15.79
2023-05-02T17:12:12.863Z,15.75
2023-05-02T17:14:42.465Z,15.55
2023-05-02T17:17:10.098Z,15.54
2023-05-02T17:19:37.227Z,15.61
2023-05-02T17:22:05.283Z,15.72
2023-05-02T17:24:33.092Z,15.79
2023-05-02T17:27:00.936Z,15.77
2023-05-02T17:29:27.972Z,15.82
2023-05-02T17:32:00.476Z,15.78
2023-05-02T17:34:30.158Z,15.78
2023-05-02T17:36:57.009Z,15.78
2023-05-02T17:39:23.894Z,15.80
2023-05-02T17:41:50.827Z,15.80
2023-05-02T17:44:17.704Z,15.63
2023-05-02T17:46:44.694Z,15.42
2023-05-02T17:49:11.627Z,15.41
2023-05-02T17:51:38.582Z,15.27
2023-05-02T17:54:05.634Z,15.33
2023-05-02T17:56:35.012Z,15.36
2023-05-02T17:59:01.885Z,15.24
2023-05-02T18:01:28.817Z,15.30
2023-05-02T18:03:55.844Z,15.05
2023-05-02T18:06:23.118Z,14.99
2023-05-02T18:08:50.005Z,14.99
2023-05-02T18:11:18.463Z,14.86
2023-05-02T18:13:46.157Z,14.75
2023-05-02T18:16:14.061Z,14.74
2023-05-02T18:18:41.730Z,14.66
2023-05-02T18:21:09.714Z,14.59
2023-05-02T18:23:36.679Z,14.57
2023-05-02T18:26:03.895Z,14.51
2023-05-02T18:28:30.920Z,14.54
2023-05-02T18:30:57.821Z,14.54
2023-05-02T18:33:24.738Z,14.50
2023-05-02T18:35:51.583Z,14.36
2023-05-02T18:38:19.591Z,14.26
2023-05-02T18:40:46.507Z,14.23
2023-05-02T18:43:13.446Z,14.19
2023-05-02T18:45:40.560Z,14.13
2023-05-02T18:48:07.495Z,13.92
2023-05-02T18:50:34.448Z,13.81
2023-05-02T18:53:01.262Z,13.74
2023-05-02T18:55:28.096Z,13.70
2023-05-02T18:57:55.088Z,13.67
2023-05-02T19:00:23.403Z,13.60
2023-05-02T19:02:53.426Z,13.57
2023-05-02T19:05:20.473Z,13.49
2023-05-02T19:07:47.467Z,13.40
2023-05-02T19:10:14.506Z,13.35
2023-05-02T19:12:42.027Z,13.29
2023-05-02T19:15:11.278Z,13.23
2023-05-02T19:17:38.210Z,13.21
2023-05-02T19:20:06.093Z,13.18
2023-05-02T19:22:34.662Z,13.10
2023-05-02T19:25:02.146Z,12.92
2023-05-02T19:27:29.459Z,12.85
2023-05-02T19:29:58.074Z,12.66
2023-05-02T19:32:25.376Z,12.64
2023-05-02T19:34:52.286Z,12.59
2023-05-02T19:37:19.156Z,12.56
2023-05-02T19:39:46.012Z,12.53
2023-05-02T19:42:12.816Z,12.50
2023-05-02T19:44:39.656Z,12.43
2023-05-02T19:47:06.515Z,12.38
2023-05-02T19:49:33.340Z,12.28
2023-05-02T19:52:00.901Z,12.25
2023-05-02T19:54:27.782Z,12.28
2023-05-02T19:56:54.636Z,12.21
2023-05-02T19:59:21.494Z,12.15
2023-05-02T20:01:48.585Z,12.10
2023-05-02T20:04:15.560Z,12.02
2023-05-02T20:06:43.139Z,11.96
2023-05-02T20:09:11.446Z,11.97
2023-05-02T20:11:38.358Z,11.86
2023-05-02T20:14:05.234Z,11.76
2023-05-02T20:16:32.739Z,11.74
2023-05-02T20:18:59.652Z,11.72
2023-05-02T20:21:26.951Z,11.69
2023-05-02T20:23:53.788Z,11.70
2023-05-02T20:26:21.304Z,11.66
2023-05-02T20:28:48.767Z,11.62
2023-05-02T20:31:16.931Z,11.62
2023-05-02T20:33:45.974Z,11.59
2023-05-02T20:36:14.822Z,11.57
2023-05-02T20:38:42.998Z,11.57
2023-05-02T20:41:14.644Z,11.50
2023-05-02T20:43:44.580Z,11.41
2023-05-02T20:46:14.050Z,11.44
2023-05-02T20:48:41.371Z,11.41
2023-05-02T20:51:08.578Z,11.44
2023-05-02T20:53:37.688Z,11.44
2023-05-02T20:56:04.846Z,11.30
2023-05-02T20:58:31.688Z,11.20
2023-05-02T21:00:58.900Z,11.08
2023-05-02T21:03:27.561Z,11.04
2023-05-02T21:05:56.448Z,11.00
2023-05-02T21:08:23.762Z,10.91
2023-05-02T21:10:51.371Z,10.85
2023-05-02T21:13:18.236Z,10.79
2023-05-02T21:15:45.206Z,10.77
2023-05-02T21:18:12.158Z,10.76
2023-05-02T21:20:41.393Z,10.73
2023-05-02T21:23:11.113Z,10.64
2023-05-02T21:25:38.536Z,10.52
2023-05-02T21:28:05.893Z,10.48
2023-05-02T21:30:32.991Z,10.52
2023-05-02T21:32:59.949Z,10.42
2023-05-02T21:35:27.421Z,10.49
2023-05-02T21:37:54.332Z,10.54
2023-05-02T21:40:21.281Z,10.56
2023-05-02T21:42:48.127Z,10.49
2023-05-02T21:45:15.096Z,10.43
2023-05-02T21:47:42.007Z,10.44
2023-05-02T21:50:09.124Z,10.45
2023-05-02T21:52:36.294Z,10.42
2023-05-02T21:55:03.424Z,10.33
2023-05-02T21:57:30.203Z,10.30
2023-05-02T21:59:57.050Z,10.35
2023-05-02T22:02:24.072Z,10.35
2023-05-02T22:04:51.054Z,10.38
2023-05-02T22:07:17.913Z,10.36
2023-05-02T22:09:44.829Z,10.34
2023-05-02T22:12:11.759Z,10.25
2023-05-02T22:14:45.013Z,10.30
2023-05-02T22:17:13.362Z,10.33
2023-05-02T22:19:40.500Z,10.35
2023-05-02T22:22:07.583Z,10.35
2023-05-02T22:24:34.513Z,10.21
2023-05-02T22:27:01.482Z,10.04
2023-05-02T22:29:28.479Z,9.96
2023-05-02T22:31:55.704Z,9.76
2023-05-02T22:34:23.077Z,9.69
2023-05-02T22:36:50.052Z,9.70
2023-05-02T22:39:16.959Z,9.73
2023-05-02T22:41:43.894Z,9.72
2023-05-02T22:44:11.557Z,9.75
2023-05-02T22:46:38.992Z,9.69
2023-05-02T22:49:11.785Z,9.63
2023-05-02T22:51:40.320Z,9.51
2023-05-02T22:54:08.018Z,9.30
2023-05-02T22:56:35.176Z,9.28
2023-05-02T22:59:02.048Z,9.33
2023-05-02T23:01:29.045Z,9.35
2023-05-02T23:03:56.218Z,9.40
2023-05-02T23:06:23.228Z,9.41
2023-05-02T23:08:50.722Z,9.42
2023-05-02T23:11:17.705Z,9.40
2023-05-02T23:13:44.483Z,9.41
2023-05-02T23:16:11.398Z,9.40
2023-05-02T23:18:38.238Z,9.48
2023-05-02T23:21:05.264Z,9.48
2023-05-02T23:23:32.204Z,9.49
2023-05-02T23:25:59.103Z,9.48
2023-05-02T23:28:26.545Z,9.46
2023-05-02T23:30:53.859Z,9.40
2023-05-02T23:33:21.069Z,9.36
2023-05-02T23:35:48.413Z,9.39
2023-05-02T23:38:15.547Z,9.42
2023-05-02T23:40:42.481Z,9.40
2023-05-02T23:43:09.860Z,9.38
2023-05-02T23:45:36.743Z,9.38
2023-05-02T23:48:03.693Z,9.35
2023-05-02T23:50:32.411Z,9.29
2023-05-02T23:52:59.209Z,9.28
2023-05-02T23:55:26.106Z,9.30
2023-05-02T23:57:52.971Z,9.30
